sensor_id;sensor_type;location;lat;lon;timestamp;pressure;altitude;pressure_sealevel;temperature;humidity
58385;BME280;44185;47.844;8.966;2023-03-31T00:00:40;95700.84;;;6.32;100.00
58385;BME280;44185;47.844;8.966;2023-03-31T00:03:06;95691.06;;;6.22;100.00
58385;BME280;44185;47.844;8.966;2023-03-31T00:05:31;95693.94;;;6.31;100.00
58385;BME280;44185;47.844;8.966;2023-03-31T00:07:58;95691.03;;;6.11;100.00
58385;BME280;44185;47.844;8.966;2023-03-31T00:10:23;95681.63;;;6.20;100.00
58385;BME280;44185;47.844;8.966;2023-03-31T00:12:49;95682.25;;;6.23;100.00
58385;BME280;44185;47.844;8.966;2023-03-31T00:15:14;95675.53;;;6.31;100.00
58385;BME280;44185;47.844;8.966;2023-03-31T00:17:40;95676.13;;;6.34;100.00
58385;BME280;44185;47.844;8.966;2023-03-31T00:20:06;95667.28;;;6.36;100.00
58385;BME280;44185;47.844;8.966;2023-03-31T00:22:32;95662.88;;;6.36;100.00
58385;BME280;44185;47.844;8.966;2023-03-31T00:24:59;95653.81;;;6.17;100.00
58385;BME280;44185;47.844;8.966;2023-03-31T00:27:24;95654.66;;;6.18;100.00
58385;BME280;44185;47.844;8.966;2023-03-31T00:29:50;95650.81;;;6.22;100.00
58385;BME280;44185;47.844;8.966;2023-03-31T00:32:15;95647.47;;;6.20;100.00
58385;BME280;44185;47.844;8.966;2023-03-31T00:34:41;95633.72;;;6.28;100.00
58385;BME280;44185;47.844;8.966;2023-03-31T00:37:07;95634.81;;;6.25;100.00
58385;BME280;44185;47.844;8.966;2023-03-31T00:39:32;95642.22;;;6.20;100.00
58385;BME280;44185;47.844;8.966;2023-03-31T00:42:00;95641.97;;;6.11;100.00
58385;BME280;44185;47.844;8.966;2023-03-31T00:44:28;95645.78;;;6.19;100.00
58385;BME280;44185;47.844;8.966;2023-03-31T00:46:55;95618.66;;;6.30;100.00
58385;BME280;44185;47.844;8.966;2023-03-31T00:49:26;95634.34;;;6.31;100.00
58385;BME280;44185;47.844;8.966;2023-03-31T00:51:54;95625.94;;;6.38;100.00
58385;BME280;44185;47.844;8.966;2023-03-31T00:54:22;95623.31;;;6.38;100.00
58385;BME280;44185;47.844;8.966;2023-03-31T00:56:50;95623.09;;;6.41;100.00
58385;BME280;44185;47.844;8.966;2023-03-31T00:59:18;95625.56;;;6.42;100.00
58385;BME280;44185;47.844;8.966;2023-03-31T01:01:45;95611.72;;;6.52;100.00
58385;BME280;44185;47.844;8.966;2023-03-31T01:04:12;95619.50;;;6.42;100.00
58385;BME280;44185;47.844;8.966;2023-03-31T01:06:51;95623.47;;;6.36;100.00
58385;BME280;44185;47.844;8.966;2023-03-31T01:09:18;95628.00;;;6.34;100.00
58385;BME280;44185;47.844;8.966;2023-03-31T01:11:45;95638.50;;;6.11;100.00
58385;BME280;44185;47.844;8.966;2023-03-31T01:14:12;95644.22;;;5.93;100.00
58385;BME280;44185;47.844;8.966;2023-03-31T01:16:38;95653.03;;;6.04;100.00
58385;BME280;44185;47.844;8.966;2023-03-31T01:19:05;95656.56;;;6.16;100.00
58385;BME280;44185;47.844;8.966;2023-03-31T01:22:08;95663.47;;;6.28;100.00
58385;BME280;44185;47.844;8.966;2023-03-31T01:27:49;95647.81;;;6.38;100.00
58385;BME280;44185;47.844;8.966;2023-03-31T01:30:36;95642.09;;;6.33;100.00
58385;BME280;44185;47.844;8.966;2023-03-31T01:33:19;95634.91;;;6.35;100.00
58385;BME280;44185;47.844;8.966;2023-03-31T01:39:24;95615.06;;;6.42;100.00
58385;BME280;44185;47.844;8.966;2023-03-31T01:42:01;95603.38;;;6.35;100.00
58385;BME280;44185;47.844;8.966;2023-03-31T01:44:39;95590.84;;;6.39;100.00
58385;BME280;44185;47.844;8.966;2023-03-31T01:47:10;95584.25;;;6.44;100.00
58385;BME280;44185;47.844;8.966;2023-03-31T01:49:42;95561.78;;;6.52;100.00
58385;BME280;44185;47.844;8.966;2023-03-31T01:52:17;95543.69;;;6.59;100.00
58385;BME280;44185;47.844;8.966;2023-03-31T01:54:47;95541.44;;;6.54;100.00
58385;BME280;44185;47.844;8.966;2023-03-31T01:57:18;95552.59;;;6.46;100.00
58385;BME280;44185;47.844;8.966;2023-03-31T01:59:48;95542.56;;;6.40;100.00
58385;BME280;44185;47.844;8.966;2023-03-31T02:02:16;95549.16;;;6.34;100.00
58385;BME280;44185;47.844;8.966;2023-03-31T02:04:47;95539.13;;;6.28;100.00
58385;BME280;44185;47.844;8.966;2023-03-31T02:07:16;95536.03;;;6.22;100.00
58385;BME280;44185;47.844;8.966;2023-03-31T02:09:44;95535.19;;;6.33;100.00
58385;BME280;44185;47.844;8.966;2023-03-31T02:12:12;95536.50;;;6.39;100.00
58385;BME280;44185;47.844;8.966;2023-03-31T02:14:43;95543.16;;;6.43;100.00
58385;BME280;44185;47.844;8.966;2023-03-31T02:17:13;95513.09;;;6.36;100.00
58385;BME280;44185;47.844;8.966;2023-03-31T02:19:40;95502.44;;;6.38;100.00
58385;BME280;44185;47.844;8.966;2023-03-31T02:22:09;95512.09;;;6.37;100.00
58385;BME280;44185;47.844;8.966;2023-03-31T02:24:37;95505.66;;;6.41;100.00
58385;BME280;44185;47.844;8.966;2023-03-31T02:27:08;95506.38;;;6.32;100.00
58385;BME280;44185;47.844;8.966;2023-03-31T02:29:35;95508.66;;;6.37;100.00
58385;BME280;44185;47.844;8.966;2023-03-31T02:32:10;95500.88;;;6.35;100.00
58385;BME280;44185;47.844;8.966;2023-03-31T02:34:38;95494.94;;;6.33;100.00
58385;BME280;44185;47.844;8.966;2023-03-31T02:37:04;95472.06;;;6.45;100.00
58385;BME280;44185;47.844;8.966;2023-03-31T02:39:33;95470.44;;;6.32;100.00
58385;BME280;44185;47.844;8.966;2023-03-31T02:41:59;95474.22;;;6.40;100.00
58385;BME280;44185;47.844;8.966;2023-03-31T02:44:25;95466.63;;;6.37;100.00
58385;BME280;44185;47.844;8.966;2023-03-31T02:46:51;95467.06;;;6.42;100.00
58385;BME280;44185;47.844;8.966;2023-03-31T02:49:19;95465.72;;;6.48;100.00
58385;BME280;44185;47.844;8.966;2023-03-31T02:51:58;95451.63;;;6.49;100.00
58385;BME280;44185;47.844;8.966;2023-03-31T02:54:51;95452.78;;;6.56;100.00
58385;BME280;44185;47.844;8.966;2023-03-31T02:57:51;95438.53;;;6.59;100.00
58385;BME280;44185;47.844;8.966;2023-03-31T03:00:27;95411.63;;;6.66;100.00
58385;BME280;44185;47.844;8.966;2023-03-31T03:03:09;95412.66;;;6.54;100.00
58385;BME280;44185;47.844;8.966;2023-03-31T03:05:44;95399.44;;;6.44;100.00
58385;BME280;44185;47.844;8.966;2023-03-31T03:08:19;95391.16;;;6.49;100.00
58385;BME280;44185;47.844;8.966;2023-03-31T03:10:57;95382.88;;;6.53;100.00
58385;BME280;44185;47.844;8.966;2023-03-31T03:13:29;95387.06;;;6.56;100.00
58385;BME280;44185;47.844;8.966;2023-03-31T03:16:00;95382.78;;;6.55;100.00
58385;BME280;44185;47.844;8.966;2023-03-31T03:18:28;95383.63;;;6.55;100.00
58385;BME280;44185;47.844;8.966;2023-03-31T03:20:55;95378.63;;;6.52;100.00
58385;BME280;44185;47.844;8.966;2023-03-31T03:23:20;95377.06;;;6.50;100.00
58385;BME280;44185;47.844;8.966;2023-03-31T03:25:46;95364.75;;;6.50;100.00
58385;BME280;44185;47.844;8.966;2023-03-31T03:28:11;95348.66;;;6.43;100.00
58385;BME280;44185;47.844;8.966;2023-03-31T03:30:36;95348.84;;;6.30;100.00
58385;BME280;44185;47.844;8.966;2023-03-31T03:33:02;95342.66;;;6.31;100.00
58385;BME280;44185;47.844;8.966;2023-03-31T03:35:27;95348.03;;;6.30;100.00
58385;BME280;44185;47.844;8.966;2023-03-31T03:37:55;95338.16;;;6.22;100.00
58385;BME280;44185;47.844;8.966;2023-03-31T03:40:20;95332.91;;;6.22;100.00
58385;BME280;44185;47.844;8.966;2023-03-31T03:42:46;95335.28;;;6.25;100.00
58385;BME280;44185;47.844;8.966;2023-03-31T03:45:11;95325.00;;;6.22;100.00
58385;BME280;44185;47.844;8.966;2023-03-31T03:47:37;95322.13;;;6.25;100.00
58385;BME280;44185;47.844;8.966;2023-03-31T03:50:02;95317.63;;;6.37;100.00
58385;BME280;44185;47.844;8.966;2023-03-31T03:52:28;95305.97;;;6.30;100.00
58385;BME280;44185;47.844;8.966;2023-03-31T03:54:55;95297.53;;;6.26;100.00
58385;BME280;44185;47.844;8.966;2023-03-31T03:57:20;95283.44;;;6.27;100.00
58385;BME280;44185;47.844;8.966;2023-03-31T03:59:46;95267.66;;;6.27;100.00
58385;BME280;44185;47.844;8.966;2023-03-31T04:02:11;95260.47;;;6.29;100.00
58385;BME280;44185;47.844;8.966;2023-03-31T04:04:37;95249.84;;;6.31;100.00
58385;BME280;44185;47.844;8.966;2023-03-31T04:07:03;95242.66;;;6.33;100.00
58385;BME280;44185;47.844;8.966;2023-03-31T04:09:29;95231.91;;;6.36;100.00
58385;BME280;44185;47.844;8.966;2023-03-31T04:11:55;95230.75;;;6.29;100.00
58385;BME280;44185;47.844;8.966;2023-03-31T04:14:21;95232.41;;;6.30;100.00
58385;BME280;44185;47.844;8.966;2023-03-31T04:16:46;95217.25;;;6.12;100.00
58385;BME280;44185;47.844;8.966;2023-03-31T04:19:12;95208.47;;;6.23;100.00
58385;BME280;44185;47.844;8.966;2023-03-31T04:21:37;95201.69;;;6.20;100.00
58385;BME280;44185;47.844;8.966;2023-03-31T04:24:03;95198.63;;;6.15;100.00
58385;BME280;44185;47.844;8.966;2023-03-31T04:26:30;95185.34;;;6.17;100.00
58385;BME280;44185;47.844;8.966;2023-03-31T04:28:57;95176.69;;;6.26;100.00
58385;BME280;44185;47.844;8.966;2023-03-31T04:31:24;95180.91;;;6.17;100.00
58385;BME280;44185;47.844;8.966;2023-03-31T04:33:49;95182.31;;;6.21;100.00
58385;BME280;44185;47.844;8.966;2023-03-31T04:36:14;95184.81;;;6.23;100.00
58385;BME280;44185;47.844;8.966;2023-03-31T04:38:40;95174.81;;;6.17;100.00
58385;BME280;44185;47.844;8.966;2023-03-31T04:41:05;95162.38;;;6.19;100.00
58385;BME280;44185;47.844;8.966;2023-03-31T04:43:31;95149.97;;;6.21;100.00
58385;BME280;44185;47.844;8.966;2023-03-31T04:45:57;95145.03;;;6.06;100.00
58385;BME280;44185;47.844;8.966;2023-03-31T04:48:23;95128.56;;;6.04;100.00
58385;BME280;44185;47.844;8.966;2023-03-31T04:50:49;95114.69;;;5.92;100.00
58385;BME280;44185;47.844;8.966;2023-03-31T04:53:14;95111.69;;;5.97;100.00
58385;BME280;44185;47.844;8.966;2023-03-31T04:55:40;95126.06;;;6.03;100.00
58385;BME280;44185;47.844;8.966;2023-03-31T04:58:05;95127.25;;;6.10;100.00
58385;BME280;44185;47.844;8.966;2023-03-31T05:00:31;95121.44;;;6.16;100.00
58385;BME280;44185;47.844;8.966;2023-03-31T05:02:58;95123.97;;;6.18;100.00
58385;BME280;44185;47.844;8.966;2023-03-31T05:05:23;95120.19;;;6.10;100.00
58385;BME280;44185;47.844;8.966;2023-03-31T05:07:49;95120.47;;;6.07;100.00
58385;BME280;44185;47.844;8.966;2023-03-31T05:10:14;95123.59;;;6.01;100.00
58385;BME280;44185;47.844;8.966;2023-03-31T05:12:40;95121.28;;;6.08;100.00
58385;BME280;44185;47.844;8.966;2023-03-31T05:15:06;95114.56;;;6.15;100.00
58385;BME280;44185;47.844;8.966;2023-03-31T05:17:33;95111.38;;;6.21;100.00
58385;BME280;44185;47.844;8.966;2023-03-31T05:20:00;95127.44;;;6.18;100.00
58385;BME280;44185;47.844;8.966;2023-03-31T05:22:26;95113.19;;;6.21;100.00
58385;BME280;44185;47.844;8.966;2023-03-31T05:24:52;95118.44;;;6.21;100.00
58385;BME280;44185;47.844;8.966;2023-03-31T05:27:17;95135.19;;;6.30;100.00
58385;BME280;44185;47.844;8.966;2023-03-31T05:29:42;95146.81;;;6.37;100.00
58385;BME280;44185;47.844;8.966;2023-03-31T05:32:09;95159.00;;;6.38;100.00
58385;BME280;44185;47.844;8.966;2023-03-31T05:34:34;95174.38;;;6.43;100.00
58385;BME280;44185;47.844;8.966;2023-03-31T05:37:01;95143.81;;;6.42;100.00
58385;BME280;44185;47.844;8.966;2023-03-31T05:39:26;95138.16;;;6.47;100.00
58385;BME280;44185;47.844;8.966;2023-03-31T05:41:52;95139.25;;;6.44;100.00
58385;BME280;44185;47.844;8.966;2023-03-31T05:44:17;95138.44;;;6.53;100.00
58385;BME280;44185;47.844;8.966;2023-03-31T05:46:43;95132.63;;;6.50;100.00
58385;BME280;44185;47.844;8.966;2023-03-31T05:49:08;95150.31;;;6.48;100.00
58385;BME280;44185;47.844;8.966;2023-03-31T05:51:34;95140.38;;;6.51;100.00
58385;BME280;44185;47.844;8.966;2023-03-31T05:54:01;95153.34;;;6.43;100.00
58385;BME280;44185;47.844;8.966;2023-03-31T05:56:26;95137.28;;;6.36;100.00
58385;BME280;44185;47.844;8.966;2023-03-31T05:58:51;95132.72;;;6.38;100.00
58385;BME280;44185;47.844;8.966;2023-03-31T06:01:17;95113.81;;;6.44;100.00
58385;BME280;44185;47.844;8.966;2023-03-31T06:03:43;95102.88;;;6.49;100.00
58385;BME280;44185;47.844;8.966;2023-03-31T06:06:09;95103.31;;;6.54;100.00
58385;BME280;44185;47.844;8.966;2023-03-31T06:08:35;95106.63;;;6.47;100.00
58385;BME280;44185;47.844;8.966;2023-03-31T06:11:04;95100.94;;;6.51;100.00
58385;BME280;44185;47.844;8.966;2023-03-31T06:13:30;95080.50;;;6.55;100.00
58385;BME280;44185;47.844;8.966;2023-03-31T06:15:56;95071.09;;;6.52;100.00
58385;BME280;44185;47.844;8.966;2023-03-31T06:18:23;95066.78;;;6.61;100.00
58385;BME280;44185;47.844;8.966;2023-03-31T06:20:49;95057.94;;;6.52;100.00
58385;BME280;44185;47.844;8.966;2023-03-31T06:23:15;95082.81;;;6.48;100.00
58385;BME280;44185;47.844;8.966;2023-03-31T06:25:40;95062.25;;;6.63;100.00
58385;BME280;44185;47.844;8.966;2023-03-31T06:28:07;95058.09;;;6.61;100.00
58385;BME280;44185;47.844;8.966;2023-03-31T06:30:33;95054.63;;;6.70;100.00
58385;BME280;44185;47.844;8.966;2023-03-31T06:32:58;95048.84;;;6.76;100.00
58385;BME280;44185;47.844;8.966;2023-03-31T06:35:24;95058.09;;;6.81;100.00
58385;BME280;44185;47.844;8.966;2023-03-31T06:37:50;95051.72;;;6.83;100.00
58385;BME280;44185;47.844;8.966;2023-03-31T06:40:15;95060.00;;;6.98;100.00
58385;BME280;44185;47.844;8.966;2023-03-31T06:42:41;95065.56;;;7.05;100.00
58385;BME280;44185;47.844;8.966;2023-03-31T06:45:09;95062.09;;;7.05;100.00
58385;BME280;44185;47.844;8.966;2023-03-31T06:47:34;95053.09;;;7.07;100.00
58385;BME280;44185;47.844;8.966;2023-03-31T06:49:59;95044.06;;;7.20;100.00
58385;BME280;44185;47.844;8.966;2023-03-31T06:52:25;95043.81;;;7.13;100.00
58385;BME280;44185;47.844;8.966;2023-03-31T06:54:50;95058.22;;;7.09;100.00
58385;BME280;44185;47.844;8.966;2023-03-31T06:57:16;95057.25;;;7.10;100.00
58385;BME280;44185;47.844;8.966;2023-03-31T06:59:41;95071.47;;;7.27;100.00
58385;BME280;44185;47.844;8.966;2023-03-31T07:02:09;95061.22;;;7.44;100.00
58385;BME280;44185;47.844;8.966;2023-03-31T07:04:35;95074.47;;;7.62;100.00
58385;BME280;44185;47.844;8.966;2023-03-31T07:07:00;95091.78;;;7.65;100.00
58385;BME280;44185;47.844;8.966;2023-03-31T07:09:25;95117.72;;;7.70;100.00
58385;BME280;44185;47.844;8.966;2023-03-31T07:11:51;95121.59;;;7.65;100.00
58385;BME280;44185;47.844;8.966;2023-03-31T07:14:16;95169.53;;;7.59;100.00
58385;BME280;44185;47.844;8.966;2023-03-31T07:16:42;95219.13;;;7.54;100.00
58385;BME280;44185;47.844;8.966;2023-03-31T07:19:09;95236.59;;;7.55;100.00
58385;BME280;44185;47.844;8.966;2023-03-31T07:21:34;95237.72;;;7.62;100.00
58385;BME280;44185;47.844;8.966;2023-03-31T07:24:00;95216.09;;;7.68;100.00
58385;BME280;44185;47.844;8.966;2023-03-31T07:26:25;95198.47;;;7.79;100.00
58385;BME280;44185;47.844;8.966;2023-03-31T07:28:50;95212.63;;;7.88;100.00
58385;BME280;44185;47.844;8.966;2023-03-31T07:31:16;95194.28;;;7.96;100.00
58385;BME280;44185;47.844;8.966;2023-03-31T07:33:43;95175.69;;;8.08;100.00
58385;BME280;44185;47.844;8.966;2023-03-31T07:36:10;95152.75;;;8.18;100.00
58385;BME280;44185;47.844;8.966;2023-03-31T07:38:36;95116.88;;;8.17;100.00
58385;BME280;44185;47.844;8.966;2023-03-31T07:41:02;95125.16;;;8.22;100.00
58385;BME280;44185;47.844;8.966;2023-03-31T07:43:27;95127.19;;;8.29;100.00
58385;BME280;44185;47.844;8.966;2023-03-31T07:45:53;95138.88;;;8.54;100.00
58385;BME280;44185;47.844;8.966;2023-03-31T07:48:19;95131.75;;;8.93;100.00
58385;BME280;44185;47.844;8.966;2023-03-31T07:50:44;95140.13;;;9.25;100.00
58385;BME280;44185;47.844;8.966;2023-03-31T07:53:11;95146.28;;;9.52;100.00
58385;BME280;44185;47.844;8.966;2023-03-31T07:55:37;95139.09;;;9.63;100.00
58385;BME280;44185;47.844;8.966;2023-03-31T07:58:02;95140.31;;;9.50;100.00
58385;BME280;44185;47.844;8.966;2023-03-31T08:00:27;95150.97;;;9.40;100.00
58385;BME280;44185;47.844;8.966;2023-03-31T08:02:53;95156.03;;;9.33;100.00
58385;BME280;44185;47.844;8.966;2023-03-31T08:05:19;95164.63;;;9.17;100.00
58385;BME280;44185;47.844;8.966;2023-03-31T08:07:47;95196.88;;;9.11;100.00
58385;BME280;44185;47.844;8.966;2023-03-31T08:10:16;95210.25;;;9.09;100.00
58385;BME280;44185;47.844;8.966;2023-03-31T08:12:42;95204.50;;;9.14;100.00
58385;BME280;44185;47.844;8.966;2023-03-31T08:15:08;95175.72;;;9.21;100.00
58385;BME280;44185;47.844;8.966;2023-03-31T08:17:34;95155.66;;;9.28;100.00
58385;BME280;44185;47.844;8.966;2023-03-31T08:20:00;95116.53;;;9.50;100.00
58385;BME280;44185;47.844;8.966;2023-03-31T08:22:25;95107.84;;;9.85;100.00
58385;BME280;44185;47.844;8.966;2023-03-31T08:24:51;95118.88;;;10.07;100.00
58385;BME280;44185;47.844;8.966;2023-03-31T08:27:17;95117.53;;;10.29;100.00
58385;BME280;44185;47.844;8.966;2023-03-31T08:29:43;95115.44;;;10.50;100.00
58385;BME280;44185;47.844;8.966;2023-03-31T08:32:08;95112.91;;;10.66;100.00
58385;BME280;44185;47.844;8.966;2023-03-31T08:34:35;95122.69;;;10.74;100.00
58385;BME280;44185;47.844;8.966;2023-03-31T08:37:00;95117.59;;;10.98;100.00
58385;BME280;44185;47.844;8.966;2023-03-31T08:39:25;95127.19;;;11.07;100.00
58385;BME280;44185;47.844;8.966;2023-03-31T08:41:56;95127.38;;;11.14;100.00
58385;BME280;44185;47.844;8.966;2023-03-31T08:44:28;95121.28;;;11.22;100.00
58385;BME280;44185;47.844;8.966;2023-03-31T08:46:56;95119.97;;;11.43;100.00
58385;BME280;44185;47.844;8.966;2023-03-31T08:49:23;95130.72;;;11.50;100.00
58385;BME280;44185;47.844;8.966;2023-03-31T08:51:53;95122.28;;;11.54;100.00
58385;BME280;44185;47.844;8.966;2023-03-31T08:54:27;95114.81;;;11.75;100.00
58385;BME280;44185;47.844;8.966;2023-03-31T08:56:54;95126.38;;;11.82;100.00
58385;BME280;44185;47.844;8.966;2023-03-31T08:59:26;95121.91;;;11.99;96.65
58385;BME280;44185;47.844;8.966;2023-03-31T09:01:59;95112.28;;;12.15;94.58
58385;BME280;44185;47.844;8.966;2023-03-31T09:07:20;95082.13;;;12.48;90.38
58385;BME280;44185;47.844;8.966;2023-03-31T09:09:53;95086.03;;;12.61;90.35
58385;BME280;44185;47.844;8.966;2023-03-31T09:12:26;95085.88;;;12.62;86.92
58385;BME280;44185;47.844;8.966;2023-03-31T09:15:00;95087.19;;;12.66;86.94
58385;BME280;44185;47.844;8.966;2023-03-31T09:17:27;95083.81;;;12.81;87.59
58385;BME280;44185;47.844;8.966;2023-03-31T09:19:56;95107.50;;;12.83;82.20
58385;BME280;44185;47.844;8.966;2023-03-31T09:22:25;95103.72;;;12.77;81.87
58385;BME280;44185;47.844;8.966;2023-03-31T09:24:55;95105.41;;;12.70;80.49
58385;BME280;44185;47.844;8.966;2023-03-31T09:27:26;95117.28;;;12.50;79.71
58385;BME280;44185;47.844;8.966;2023-03-31T09:29:56;95124.31;;;12.34;80.01
58385;BME280;44185;47.844;8.966;2023-03-31T09:32:24;95096.38;;;12.15;79.18
58385;BME280;44185;47.844;8.966;2023-03-31T09:34:51;95081.44;;;12.06;81.43
58385;BME280;44185;47.844;8.966;2023-03-31T09:37:18;95083.94;;;11.99;79.61
58385;BME280;44185;47.844;8.966;2023-03-31T09:39:44;95074.84;;;11.93;77.76
58385;BME280;44185;47.844;8.966;2023-03-31T09:42:11;95072.38;;;11.92;78.32
58385;BME280;44185;47.844;8.966;2023-03-31T09:44:38;95087.78;;;11.96;79.16
58385;BME280;44185;47.844;8.966;2023-03-31T09:47:12;95078.97;;;11.96;78.97
58385;BME280;44185;47.844;8.966;2023-03-31T09:49:39;95080.28;;;12.00;79.54
58385;BME280;44185;47.844;8.966;2023-03-31T09:52:13;95089.78;;;11.94;77.67
58385;BME280;44185;47.844;8.966;2023-03-31T09:54:45;95083.81;;;11.84;81.14
58385;BME280;44185;47.844;8.966;2023-03-31T09:57:14;95122.44;;;11.70;83.86
58385;BME280;44185;47.844;8.966;2023-03-31T09:59:40;95080.38;;;11.58;82.34
58385;BME280;44185;47.844;8.966;2023-03-31T10:02:28;95100.91;;;11.64;83.48
58385;BME280;44185;47.844;8.966;2023-03-31T10:04:56;95052.69;;;11.69;77.15
58385;BME280;44185;47.844;8.966;2023-03-31T10:07:22;95044.03;;;11.92;80.92
58385;BME280;44185;47.844;8.966;2023-03-31T10:09:50;95051.81;;;12.02;74.73
58385;BME280;44185;47.844;8.966;2023-03-31T10:12:18;95051.94;;;12.17;73.77
58385;BME280;44185;47.844;8.966;2023-03-31T10:14:47;95037.56;;;12.43;76.00
58385;BME280;44185;47.844;8.966;2023-03-31T10:17:15;95039.97;;;12.53;75.62
58385;BME280;44185;47.844;8.966;2023-03-31T10:19:46;95027.81;;;12.67;76.70
58385;BME280;44185;47.844;8.966;2023-03-31T10:22:14;95027.31;;;12.87;77.73
58385;BME280;44185;47.844;8.966;2023-03-31T10:24:42;94998.13;;;13.11;77.54
58385;BME280;44185;47.844;8.966;2023-03-31T10:27:17;95005.03;;;13.35;76.49
58385;BME280;44185;47.844;8.966;2023-03-31T10:29:45;95000.63;;;13.28;73.33
58385;BME280;44185;47.844;8.966;2023-03-31T10:32:19;94990.59;;;13.53;72.80
58385;BME280;44185;47.844;8.966;2023-03-31T10:34:47;94979.16;;;13.68;73.26
58385;BME280;44185;47.844;8.966;2023-03-31T10:37:15;94980.09;;;13.90;72.01
58385;BME280;44185;47.844;8.966;2023-03-31T10:39:42;94984.75;;;13.88;70.45
58385;BME280;44185;47.844;8.966;2023-03-31T10:42:08;94976.22;;;14.08;68.72
58385;BME280;44185;47.844;8.966;2023-03-31T10:44:35;94975.75;;;14.20;68.38
58385;BME280;44185;47.844;8.966;2023-03-31T10:47:15;94966.66;;;14.14;66.23
58385;BME280;44185;47.844;8.966;2023-03-31T10:49:44;94974.59;;;13.92;64.54
58385;BME280;44185;47.844;8.966;2023-03-31T10:52:18;94955.63;;;13.80;64.40
58385;BME280;44185;47.844;8.966;2023-03-31T10:54:48;94961.94;;;13.64;65.10
58385;BME280;44185;47.844;8.966;2023-03-31T10:57:14;94959.03;;;13.59;66.21
58385;BME280;44185;47.844;8.966;2023-03-31T10:59:51;94963.81;;;13.40;62.72
58385;BME280;44185;47.844;8.966;2023-03-31T11:05:11;94955.63;;;13.80;63.09
58385;BME280;44185;47.844;8.966;2023-03-31T11:07:49;94953.59;;;13.82;60.10
58385;BME280;44185;47.844;8.966;2023-03-31T11:10:35;94933.69;;;13.48;63.43
58385;BME280;44185;47.844;8.966;2023-03-31T11:13:07;94927.34;;;13.18;64.95
58385;BME280;44185;47.844;8.966;2023-03-31T11:15:39;94912.19;;;13.04;63.75
58385;BME280;44185;47.844;8.966;2023-03-31T11:18:14;94920.56;;;13.46;64.22
58385;BME280;44185;47.844;8.966;2023-03-31T11:20:50;94918.31;;;13.73;61.38
58385;BME280;44185;47.844;8.966;2023-03-31T11:23:25;94929.13;;;13.72;62.11
58385;BME280;44185;47.844;8.966;2023-03-31T11:26:00;94918.56;;;13.78;61.23
58385;BME280;44185;47.844;8.966;2023-03-31T11:31:25;94927.00;;;13.37;63.43
58385;BME280;44185;47.844;8.966;2023-03-31T11:34:03;94928.72;;;13.29;65.54
58385;BME280;44185;47.844;8.966;2023-03-31T11:36:46;94922.13;;;13.25;65.55
58385;BME280;44185;47.844;8.966;2023-03-31T11:39:24;94919.47;;;13.25;62.41
58385;BME280;44185;47.844;8.966;2023-03-31T11:41:57;94928.53;;;13.46;59.30
58385;BME280;44185;47.844;8.966;2023-03-31T11:44:27;94923.72;;;13.65;62.01
58385;BME280;44185;47.844;8.966;2023-03-31T11:46:56;94908.59;;;13.65;60.81
58385;BME280;44185;47.844;8.966;2023-03-31T11:49:26;94909.06;;;13.69;55.92
58385;BME280;44185;47.844;8.966;2023-03-31T11:51:55;94933.34;;;13.66;56.67
58385;BME280;44185;47.844;8.966;2023-03-31T11:54:27;94929.00;;;13.50;57.75
58385;BME280;44185;47.844;8.966;2023-03-31T11:56:55;94952.44;;;13.16;59.88
58385;BME280;44185;47.844;8.966;2023-03-31T11:59:21;94963.84;;;12.77;62.71
58385;BME280;44185;47.844;8.966;2023-03-31T12:01:54;94945.41;;;12.84;63.07
58385;BME280;44185;47.844;8.966;2023-03-31T12:04:29;94926.72;;;12.93;59.85
58385;BME280;44185;47.844;8.966;2023-03-31T12:07:02;94919.94;;;13.44;59.66
58385;BME280;44185;47.844;8.966;2023-03-31T12:09:35;94909.50;;;13.88;58.48
58385;BME280;44185;47.844;8.966;2023-03-31T12:12:04;94911.38;;;14.31;58.44
58385;BME280;44185;47.844;8.966;2023-03-31T12:14:38;94907.06;;;14.74;56.97
58385;BME280;44185;47.844;8.966;2023-03-31T12:17:10;94906.00;;;14.90;55.59
58385;BME280;44185;47.844;8.966;2023-03-31T12:19:44;94901.53;;;14.91;53.95
58385;BME280;44185;47.844;8.966;2023-03-31T12:22:17;94899.13;;;15.03;53.40
58385;BME280;44185;47.844;8.966;2023-03-31T12:24:44;94909.13;;;15.23;54.44
58385;BME280;44185;47.844;8.966;2023-03-31T12:27:13;94917.97;;;15.66;54.35
58385;BME280;44185;47.844;8.966;2023-03-31T12:29:42;94915.06;;;15.61;52.13
58385;BME280;44185;47.844;8.966;2023-03-31T12:32:11;94916.09;;;15.24;51.53
58385;BME280;44185;47.844;8.966;2023-03-31T12:34:46;94924.84;;;14.89;51.16
58385;BME280;44185;47.844;8.966;2023-03-31T12:37:30;94949.47;;;14.32;50.98
58385;BME280;44185;47.844;8.966;2023-03-31T12:40:06;95058.97;;;12.97;61.47
58385;BME280;44185;47.844;8.966;2023-03-31T12:42:53;95061.44;;;10.52;75.82
58385;BME280;44185;47.844;8.966;2023-03-31T12:45:26;95072.97;;;9.73;84.01
58385;BME280;44185;47.844;8.966;2023-03-31T12:48:06;95093.78;;;9.49;82.33
58385;BME280;44185;47.844;8.966;2023-03-31T12:50:48;95074.66;;;9.55;82.73
58385;BME280;44185;47.844;8.966;2023-03-31T12:53:24;95027.44;;;9.52;86.54
58385;BME280;44185;47.844;8.966;2023-03-31T12:55:54;94984.41;;;9.60;78.64
58385;BME280;44185;47.844;8.966;2023-03-31T12:58:40;94983.63;;;9.68;78.60
58385;BME280;44185;47.844;8.966;2023-03-31T13:01:12;94979.03;;;9.78;75.58
58385;BME280;44185;47.844;8.966;2023-03-31T13:03:49;94970.16;;;9.88;77.67
58385;BME280;44185;47.844;8.966;2023-03-31T13:09:49;94965.22;;;10.53;68.81
58385;BME280;44185;47.844;8.966;2023-03-31T13:12:17;94955.09;;;11.32;68.07
58385;BME280;44185;47.844;8.966;2023-03-31T13:14:44;94931.69;;;11.53;69.92
58385;BME280;44185;47.844;8.966;2023-03-31T13:17:22;94940.19;;;11.88;69.28
58385;BME280;44185;47.844;8.966;2023-03-31T13:19:48;94926.38;;;12.33;65.07
58385;BME280;44185;47.844;8.966;2023-03-31T13:22:28;94933.25;;;12.66;65.32
58385;BME280;44185;47.844;8.966;2023-03-31T13:25:30;94950.91;;;12.98;65.62
58385;BME280;44185;47.844;8.966;2023-03-31T13:27:58;94939.91;;;12.86;61.84